Terminal Aerodrome Forecast
Issued by NWS

Home | Current Version | Previous Version | Text Only | Print | Product List | Glossary On
Versions: 1 2 3 4 5 6 7 8 9 10 11 12 13 14
000
FTUS44 KLZK 111136
TAFPBF
TAF
KPBF 111136Z 1112/1212 16009KT P6SM OVC035 WS020/20040KT
     FM111700 18010G18KT P6SM VCSH OVC025 WS020/20040KT
     FM120300 20010KT 5SM -RA BR OVC010=

USA.gov is the U.S. government's official web portal to all federal, state and local government web resources and services.